Time;durP1;ratioP1;P1;durP2;ratioP2;P2;SDS_P1;SDS_P2;PMS_P1;PMS_P2;Temp;Humidity;BMP_temperature;BMP_pressure;BME280_temperature;BME280_humidity;BME280_pressure;Samples;Min_cycle;Max_cycle;Signal;HPM_P1;HPM_P2
2022/06/24 00:01:17;;;;;;;7.03;5.03;;;;;;;;;;5017721;28;20010;-70
2022/06/24 00:03:43;;;;;;;7.22;5.15;;;;;;;;;;5011053;28;20145;-68
2022/06/24 00:06:15;;;;;;;6.53;4.57;;;;;;;;;;5013702;28;20861;-71
2022/06/24 00:08:48;;;;;;;6.30;4.47;;;;;;;;;;5012771;28;20030;-70
2022/06/24 00:11:13;;;;;;;8.77;4.90;;;;;;;;;;5014059;28;20022;-69
2022/06/24 00:13:39;;;;;;;6.90;4.43;;;;;;;;;;5014374;28;20436;-68
2022/06/24 00:16:04;;;;;;;7.30;4.50;;;;;;;;;;5017218;28;20025;-68
2022/06/24 00:18:30;;;;;;;6.28;3.75;;;;;;;;;;5012737;28;20021;-71
2022/06/24 00:20:55;;;;;;;9.05;4.03;;;;;;;;;;5009828;28;20352;-69
2022/06/24 00:23:21;;;;;;;7.20;3.83;;;;;;;;;;5011017;28;20044;-74
2022/06/24 00:25:47;;;;;;;4.72;4.00;;;;;;;;;;5012591;28;20140;-68
2022/06/24 00:28:13;;;;;;;5.82;4.00;;;;;;;;;;5014684;28;20079;-69
2022/06/24 00:30:40;;;;;;;7.15;4.40;;;;;;;;;;5012978;28;20026;-70
2022/06/24 00:33:10;;;;;;;4.25;3.70;;;;;;;;;;5015081;28;20104;-69
2022/06/24 00:35:37;;;;;;;4.85;4.15;;;;;;;;;;5009006;28;20044;-73
2022/06/24 00:38:19;;;;;;;7.22;4.22;;;;;;;;;;5014726;28;20030;-68
2022/06/24 00:40:47;;;;;;;5.25;3.45;;;;;;;;;;5009863;28;20368;-68
2022/06/24 00:43:18;;;;;;;4.65;4.25;;;;;;;;;;5024752;28;20021;-70
2022/06/24 00:45:45;;;;;;;5.88;4.57;;;;;;;;;;5013745;28;20026;-67
2022/06/24 00:48:14;;;;;;;4.10;3.67;;;;;;;;;;5013120;28;20026;-67
2022/06/24 00:50:40;;;;;;;6.43;4.40;;;;;;;;;;5011370;28;20125;-71
2022/06/24 00:53:05;;;;;;;4.80;4.13;;;;;;;;;;5006594;28;20794;-74
2022/06/24 00:55:32;;;;;;;5.18;4.40;;;;;;;;;;5011640;28;20029;-71
2022/06/24 00:57:59;;;;;;;9.30;4.78;;;;;;;;;;5008656;28;20245;-69
2022/06/24 01:00:25;;;;;;;9.68;4.47;;;;;;;;;;5016438;28;20103;-70
2022/06/24 01:02:56;;;;;;;7.05;4.35;;;;;;;;;;5010811;28;20017;-73
2022/06/24 01:05:21;;;;;;;5.63;3.92;;;;;;;;;;5008996;28;20034;-69
2022/06/24 01:07:46;;;;;;;6.28;5.03;;;;;;;;;;5007291;28;20381;-73
2022/06/24 01:10:12;;;;;;;10.98;7.28;;;;;;;;;;5009222;28;20402;-70
2022/06/24 01:12:37;;;;;;;9.23;7.63;;;;;;;;;;5014117;28;20105;-69
2022/06/24 01:15:04;;;;;;;7.68;5.45;;;;;;;;;;5014075;28;21055;-70
2022/06/24 01:17:29;;;;;;;6.18;4.32;;;;;;;;;;5030376;28;20018;-68
2022/06/24 01:19:54;;;;;;;9.30;5.00;;;;;;;;;;5015169;28;20456;-70
2022/06/24 01:22:20;;;;;;;7.28;4.82;;;;;;;;;;5008540;28;20040;-68
2022/06/24 01:24:46;;;;;;;7.80;5.63;;;;;;;;;;5006585;28;20079;-71
2022/06/24 01:27:11;;;;;;;10.10;6.00;;;;;;;;;;5008127;28;20456;-69
2022/06/24 01:29:36;;;;;;;8.60;5.35;;;;;;;;;;5010247;28;20040;-74
2022/06/24 01:32:02;;;;;;;7.55;5.43;;;;;;;;;;5010839;28;20025;-69
2022/06/24 01:34:27;;;;;;;6.60;5.70;;;;;;;;;;5012101;28;20053;-70
2022/06/24 01:36:53;;;;;;;10.35;6.57;;;;;;;;;;5010358;28;20029;-68
2022/06/24 01:39:19;;;;;;;10.85;7.22;;;;;;;;;;5010705;28;20033;-69
2022/06/24 01:41:45;;;;;;;9.27;6.63;;;;;;;;;;5008225;28;20056;-70
2022/06/24 01:44:10;;;;;;;6.80;6.15;;;;;;;;;;5013361;28;20364;-70
2022/06/24 01:46:36;;;;;;;8.15;6.50;;;;;;;;;;5013096;28;20078;-69
2022/06/24 01:49:01;;;;;;;6.45;5.60;;;;;;;;;;5019287;28;20017;-70
2022/06/24 01:51:27;;;;;;;7.50;5.60;;;;;;;;;;5016142;28;20025;-71
2022/06/24 01:53:53;;;;;;;5.43;4.93;;;;;;;;;;5019083;28;20040;-69
2022/06/24 01:56:18;;;;;;;6.63;5.43;;;;;;;;;;5017692;28;20032;-69
2022/06/24 01:58:44;;;;;;;8.38;5.72;;;;;;;;;;5005891;28;20017;-68
2022/06/24 02:01:10;;;;;;;8.20;4.63;;;;;;;;;;5012034;28;20106;-73
2022/06/24 02:03:35;;;;;;;7.55;4.88;;;;;;;;;;5019112;28;20018;-71
2022/06/24 02:06:04;;;;;;;7.53;4.63;;;;;;;;;;5016687;28;20135;-69
2022/06/24 02:08:29;;;;;;;6.20;4.65;;;;;;;;;;5010505;28;20087;-69
2022/06/24 02:13:39;;;;;;;7.85;4.68;;;;;;;;;;5011715;28;20112;-71
2022/06/24 02:16:04;;;;;;;8.10;4.88;;;;;;;;;;4990682;28;20112;-76
2022/06/24 02:18:30;;;;;;;7.32;5.03;;;;;;;;;;5014090;28;20306;-70
2022/06/24 02:20:56;;;;;;;8.00;5.40;;;;;;;;;;5015476;28;20026;-69
2022/06/24 02:23:21;;;;;;;6.78;5.95;;;;;;;;;;5016715;28;20440;-67
2022/06/24 02:25:48;;;;;;;6.95;5.60;;;;;;;;;;5017693;28;20121;-69
2022/06/24 02:28:13;;;;;;;7.53;5.80;;;;;;;;;;5016629;28;20028;-70
2022/06/24 02:30:39;;;;;;;5.53;5.00;;;;;;;;;;5018555;28;20022;-73
2022/06/24 02:33:05;;;;;;;8.75;5.35;;;;;;;;;;4999422;28;20654;-69
2022/06/24 02:35:30;;;;;;;7.72;5.20;;;;;;;;;;5017892;28;20033;-67
2022/06/24 02:37:55;;;;;;;8.77;5.43;;;;;;;;;;5022130;28;20348;-69
2022/06/24 02:43:11;;;;;;;11.90;5.82;;;;;;;;;;5016370;28;20101;-70
2022/06/24 02:45:36;;;;;;;7.55;5.53;;;;;;;;;;5014755;28;20040;-68
2022/06/24 02:48:02;;;;;;;6.97;5.32;;;;;;;;;;5009199;28;20312;-74
2022/06/24 02:50:27;;;;;;;8.52;5.50;;;;;;;;;;5008122;28;20160;-69
2022/06/24 02:52:52;;;;;;;7.03;5.47;;;;;;;;;;5009760;28;20079;-72
2022/06/24 02:55:18;;;;;;;8.50;5.47;;;;;;;;;;5007822;28;20038;-71
2022/06/24 02:57:43;;;;;;;7.90;6.47;;;;;;;;;;5007592;28;20037;-69
2022/06/24 03:00:09;;;;;;;6.95;5.53;;;;;;;;;;5008931;28;20102;-68
2022/06/24 03:02:34;;;;;;;12.68;5.97;;;;;;;;;;5007369;28;20109;-70
2022/06/24 03:04:59;;;;;;;6.38;4.93;;;;;;;;;;5008451;28;20131;-68
2022/06/24 03:07:25;;;;;;;8.40;5.38;;;;;;;;;;5008021;28;20487;-69
2022/06/24 03:09:50;;;;;;;6.10;5.43;;;;;;;;;;5013465;28;20029;-68
2022/06/24 03:12:15;;;;;;;7.32;5.35;;;;;;;;;;5015124;28;20038;-70
2022/06/24 03:14:41;;;;;;;6.43;5.57;;;;;;;;;;5017163;28;20029;-70
2022/06/24 03:17:06;;;;;;;14.30;7.22;;;;;;;;;;5011550;28;20075;-69
2022/06/24 03:19:31;;;;;;;10.40;5.78;;;;;;;;;;5014345;28;20036;-72
2022/06/24 03:21:57;;;;;;;10.77;5.70;;;;;;;;;;5013977;28;20136;-72
2022/06/24 03:24:22;;;;;;;5.95;4.97;;;;;;;;;;5016073;28;20923;-69
2022/06/24 03:26:47;;;;;;;8.10;5.20;;;;;;;;;;5011613;28;20108;-68
2022/06/24 03:29:13;;;;;;;6.57;5.18;;;;;;;;;;5016617;28;20033;-69
2022/06/24 03:31:38;;;;;;;8.88;6.30;;;;;;;;;;5012545;28;20048;-70
2022/06/24 03:34:03;;;;;;;9.38;4.90;;;;;;;;;;5012819;28;20029;-66
2022/06/24 03:36:29;;;;;;;5.28;4.43;;;;;;;;;;5014412;28;20036;-66
2022/06/24 03:38:54;;;;;;;7.35;5.25;;;;;;;;;;5014653;28;20032;-68
2022/06/24 03:41:19;;;;;;;5.53;5.03;;;;;;;;;;5016901;28;20081;-73
2022/06/24 03:43:45;;;;;;;6.45;4.90;;;;;;;;;;5012728;28;20037;-69
2022/06/24 03:46:10;;;;;;;11.45;5.07;;;;;;;;;;5006965;28;20551;-68
2022/06/24 03:48:36;;;;;;;6.32;4.78;;;;;;;;;;5006926;28;20033;-71
2022/06/24 03:51:01;;;;;;;5.78;5.28;;;;;;;;;;5006714;28;20025;-67
2022/06/24 03:53:26;;;;;;;5.82;5.32;;;;;;;;;;5007533;28;20349;-69
2022/06/24 03:55:52;;;;;;;9.10;6.07;;;;;;;;;;5008316;28;20033;-67
2022/06/24 03:58:18;;;;;;;6.47;5.75;;;;;;;;;;5013269;28;20017;-66
2022/06/24 04:00:43;;;;;;;10.07;6.60;;;;;;;;;;5008851;28;20021;-70
2022/06/24 04:03:09;;;;;;;9.55;6.63;;;;;;;;;;5018719;28;20504;-69
2022/06/24 04:05:34;;;;;;;6.85;5.78;;;;;;;;;;5007853;28;20487;-67
2022/06/24 04:08:00;;;;;;;9.35;5.90;;;;;;;;;;5006803;28;20371;-70
2022/06/24 04:10:25;;;;;;;9.73;5.85;;;;;;;;;;5014028;28;20463;-68
2022/06/24 04:12:51;;;;;;;8.60;6.13;;;;;;;;;;5012221;28;20076;-66
2022/06/24 04:15:20;;;;;;;7.38;6.22;;;;;;;;;;5011456;28;20037;-67
2022/06/24 04:17:46;;;;;;;8.20;6.05;;;;;;;;;;5011066;28;20041;-66
2022/06/24 04:20:13;;;;;;;7.70;7.00;;;;;;;;;;5014490;28;20032;-68
2022/06/24 04:22:38;;;;;;;9.90;8.10;;;;;;;;;;5011909;28;20098;-73
2022/06/24 04:25:04;;;;;;;8.25;6.93;;;;;;;;;;5010640;28;20030;-71
2022/06/24 04:27:29;;;;;;;8.80;6.57;;;;;;;;;;5012412;28;20125;-68
2022/06/24 04:29:59;;;;;;;6.15;5.55;;;;;;;;;;5012140;28;20026;-69
2022/06/24 04:32:24;;;;;;;7.13;6.13;;;;;;;;;;5014319;28;20032;-70
2022/06/24 04:34:49;;;;;;;7.32;6.63;;;;;;;;;;5015042;28;20083;-68
2022/06/24 04:37:15;;;;;;;6.78;6.13;;;;;;;;;;5011674;28;20890;-69
2022/06/24 04:39:40;;;;;;;7.07;6.38;;;;;;;;;;5008915;28;20127;-70
2022/06/24 04:42:05;;;;;;;6.50;5.90;;;;;;;;;;5011226;28;20033;-69
2022/06/24 04:44:31;;;;;;;7.95;6.40;;;;;;;;;;5014068;28;20053;-67
2022/06/24 04:46:57;;;;;;;7.03;6.07;;;;;;;;;;5011221;28;20365;-72
2022/06/24 04:49:22;;;;;;;6.38;5.78;;;;;;;;;;5013895;28;20036;-68
2022/06/24 04:51:48;;;;;;;9.50;5.90;;;;;;;;;;5011803;28;20022;-74
2022/06/24 04:54:13;;;;;;;7.18;6.07;;;;;;;;;;5008059;28;20429;-68
2022/06/24 04:56:38;;;;;;;7.03;6.30;;;;;;;;;;5006820;28;20028;-68
2022/06/24 04:59:04;;;;;;;6.40;5.80;;;;;;;;;;5004759;28;20996;-71
2022/06/24 05:01:29;;;;;;;7.88;5.75;;;;;;;;;;5006524;28;20029;-67
2022/06/24 05:03:55;;;;;;;7.90;5.45;;;;;;;;;;5009749;28;20425;-68
2022/06/24 05:06:20;;;;;;;6.07;5.53;;;;;;;;;;5010717;28;20076;-65
2022/06/24 05:08:47;;;;;;;7.75;5.72;;;;;;;;;;5009820;28;20445;-68
2022/06/24 05:11:13;;;;;;;8.77;5.22;;;;;;;;;;5015229;28;20048;-69
2022/06/24 05:13:38;;;;;;;8.68;4.93;;;;;;;;;;5012321;28;20447;-68
2022/06/24 05:16:03;;;;;;;8.35;5.40;;;;;;;;;;5014277;28;20038;-74
2022/06/24 05:18:29;;;;;;;5.28;4.72;;;;;;;;;;5004411;28;20104;-69
2022/06/24 05:20:54;;;;;;;5.57;5.07;;;;;;;;;;5004510;28;20079;-67
2022/06/24 05:23:20;;;;;;;5.78;5.07;;;;;;;;;;5002092;28;20094;-67
2022/06/24 05:25:45;;;;;;;4.80;4.40;;;;;;;;;;5012547;28;20037;-67
2022/06/24 05:28:10;;;;;;;5.07;4.65;;;;;;;;;;5009970;28;20033;-68
2022/06/24 05:30:36;;;;;;;8.95;4.53;;;;;;;;;;5010927;28;20083;-68
2022/06/24 05:33:02;;;;;;;6.10;4.57;;;;;;;;;;5013994;28;20083;-67
2022/06/24 05:35:27;;;;;;;6.65;4.30;;;;;;;;;;5013567;28;20037;-68
2022/06/24 05:37:52;;;;;;;5.53;5.03;;;;;;;;;;5014006;28;20399;-71
2022/06/24 05:40:18;;;;;;;6.95;4.88;;;;;;;;;;5011144;28;20061;-68
2022/06/24 05:42:43;;;;;;;6.75;4.88;;;;;;;;;;5004316;28;20045;-69
2022/06/24 05:45:09;;;;;;;5.13;4.53;;;;;;;;;;5004893;28;20041;-66
2022/06/24 05:47:34;;;;;;;6.68;5.05;;;;;;;;;;5013791;28;20029;-67
2022/06/24 05:50:00;;;;;;;5.32;4.68;;;;;;;;;;5011173;28;20030;-69
2022/06/24 05:55:09;;;;;;;6.78;4.93;;;;;;;;;;5014051;28;20045;-68
2022/06/24 05:57:34;;;;;;;5.25;4.50;;;;;;;;;;5007148;28;20033;-68
2022/06/24 06:00:00;;;;;;;6.90;4.40;;;;;;;;;;5006339;28;20112;-71
2022/06/24 06:02:25;;;;;;;5.47;4.88;;;;;;;;;;5009617;28;20349;-70
2022/06/24 06:04:50;;;;;;;5.75;4.38;;;;;;;;;;5013532;28;20053;-72
2022/06/24 06:07:16;;;;;;;4.40;4.00;;;;;;;;;;5005216;28;20108;-69
2022/06/24 06:09:41;;;;;;;4.72;4.32;;;;;;;;;;5004668;28;20067;-69
2022/06/24 06:12:07;;;;;;;5.22;4.72;;;;;;;;;;5008816;28;20034;-73
2022/06/24 06:14:32;;;;;;;4.90;4.28;;;;;;;;;;5010507;28;20178;-70
2022/06/24 06:16:57;;;;;;;5.40;4.53;;;;;;;;;;5009122;28;20033;-71
2022/06/24 06:19:23;;;;;;;5.60;4.60;;;;;;;;;;5011447;28;20108;-70
2022/06/24 06:21:48;;;;;;;5.00;4.53;;;;;;;;;;5010431;28;20057;-74
2022/06/24 06:24:14;;;;;;;4.97;4.47;;;;;;;;;;5010382;28;20025;-71
2022/06/24 06:26:39;;;;;;;5.07;4.68;;;;;;;;;;5007967;28;20466;-67
2022/06/24 06:29:04;;;;;;;5.15;3.50;;;;;;;;;;5007096;28;20033;-73
2022/06/24 06:31:30;;;;;;;6.57;4.22;;;;;;;;;;5006031;28;20099;-70
2022/06/24 06:33:56;;;;;;;4.45;4.05;;;;;;;;;;5009111;28;20135;-67
2022/06/24 06:36:21;;;;;;;7.90;4.32;;;;;;;;;;5010029;28;20030;-67
2022/06/24 06:38:46;;;;;;;4.57;4.18;;;;;;;;;;5009851;28;20108;-69
2022/06/24 06:41:12;;;;;;;5.43;4.30;;;;;;;;;;5009169;28;20044;-71
2022/06/24 06:43:38;;;;;;;4.18;3.78;;;;;;;;;;5009409;28;20337;-69
2022/06/24 06:46:07;;;;;;;5.97;4.05;;;;;;;;;;5008925;28;20116;-68
2022/06/24 06:48:32;;;;;;;3.77;3.47;;;;;;;;;;5006134;28;20433;-67
2022/06/24 06:50:58;;;;;;;6.22;4.28;;;;;;;;;;5008847;28;20013;-70
2022/06/24 06:53:24;;;;;;;4.68;3.70;;;;;;;;;;5007368;28;20092;-72
2022/06/24 06:55:50;;;;;;;6.82;3.65;;;;;;;;;;5007798;28;20045;-71
2022/06/24 06:58:16;;;;;;;5.43;3.95;;;;;;;;;;5009516;28;20071;-71
2022/06/24 07:00:41;;;;;;;3.90;3.42;;;;;;;;;;5006931;28;20433;-67
2022/06/24 07:03:06;;;;;;;4.50;3.88;;;;;;;;;;5007855;28;20037;-65
2022/06/24 07:05:32;;;;;;;4.70;4.25;;;;;;;;;;5007709;28;20072;-68
2022/06/24 07:07:57;;;;;;;4.70;3.70;;;;;;;;;;5021005;28;20064;-67
2022/06/24 07:10:22;;;;;;;3.67;3.33;;;;;;;;;;5005792;28;20029;-73
2022/06/24 07:12:48;;;;;;;5.55;3.60;;;;;;;;;;5009322;28;20434;-69
2022/06/24 07:15:16;;;;;;;5.70;3.85;;;;;;;;;;5009638;28;20032;-68
2022/06/24 07:17:41;;;;;;;3.35;2.92;;;;;;;;;;5006307;28;20388;-68
2022/06/24 07:20:07;;;;;;;3.90;3.35;;;;;;;;;;5009167;28;20029;-69
2022/06/24 07:22:32;;;;;;;4.00;2.92;;;;;;;;;;5006022;28;20392;-73
2022/06/24 07:24:58;;;;;;;4.45;3.50;;;;;;;;;;5006724;28;20460;-69
2022/06/24 07:27:23;;;;;;;6.15;3.60;;;;;;;;;;5006038;28;20172;-68
2022/06/24 07:29:48;;;;;;;3.60;3.30;;;;;;;;;;5008541;28;20025;-72
2022/06/24 07:32:14;;;;;;;4.20;3.80;;;;;;;;;;5009258;28;20352;-67
2022/06/24 07:34:39;;;;;;;3.20;3.00;;;;;;;;;;5008579;28;20214;-66
2022/06/24 07:37:04;;;;;;;3.20;2.90;;;;;;;;;;5011382;28;20013;-67
2022/06/24 07:39:30;;;;;;;5.43;3.05;;;;;;;;;;5005819;28;20425;-67
2022/06/24 07:41:56;;;;;;;3.88;3.40;;;;;;;;;;5005483;28;20466;-68
2022/06/24 07:44:21;;;;;;;3.92;2.95;;;;;;;;;;5009372;28;20060;-68
2022/06/24 07:46:47;;;;;;;4.93;3.40;;;;;;;;;;5007203;28;20106;-70
2022/06/24 07:49:12;;;;;;;3.70;3.30;;;;;;;;;;5008716;28;20451;-72
2022/06/24 07:51:38;;;;;;;5.60;3.40;;;;;;;;;;5007951;28;20040;-67
2022/06/24 07:54:05;;;;;;;5.85;3.40;;;;;;;;;;5014378;28;20392;-67
2022/06/24 07:59:15;;;;;;;5.20;3.10;;;;;;;;;;5013576;28;20024;-68
2022/06/24 08:01:40;;;;;;;2.72;2.42;;;;;;;;;;5014363;28;20033;-70
2022/06/24 08:04:09;;;;;;;3.40;3.08;;;;;;;;;;5007873;28;20021;-67
2022/06/24 08:06:38;;;;;;;4.40;2.70;;;;;;;;;;5007611;28;20021;-72
2022/06/24 08:09:04;;;;;;;4.43;3.13;;;;;;;;;;5008164;28;20056;-71
2022/06/24 08:11:29;;;;;;;3.63;3.00;;;;;;;;;;5005010;28;20385;-66
2022/06/24 08:13:55;;;;;;;3.65;2.95;;;;;;;;;;5005657;28;20117;-68
2022/06/24 08:16:21;;;;;;;5.72;2.70;;;;;;;;;;5008570;28;20029;-67
2022/06/24 08:18:47;;;;;;;3.53;2.67;;;;;;;;;;5007627;28;20474;-68
2022/06/24 08:21:12;;;;;;;6.47;3.08;;;;;;;;;;5005229;28;20041;-66
2022/06/24 08:23:37;;;;;;;3.10;2.72;;;;;;;;;;5007271;28;20029;-66
2022/06/24 08:26:04;;;;;;;3.53;2.97;;;;;;;;;;5005647;28;20037;-66
2022/06/24 08:28:29;;;;;;;4.25;2.92;;;;;;;;;;5007496;28;20464;-68
2022/06/24 08:30:54;;;;;;;3.42;2.60;;;;;;;;;;5031303;28;20060;-69
2022/06/24 08:33:20;;;;;;;3.35;2.28;;;;;;;;;;5013718;28;20420;-66
2022/06/24 08:35:45;;;;;;;4.20;2.60;;;;;;;;;;5014228;28;20034;-71
2022/06/24 08:38:11;;;;;;;2.47;2.28;;;;;;;;;;5014868;28;20436;-68
2022/06/24 08:40:37;;;;;;;4.18;2.20;;;;;;;;;;5012661;28;20056;-69
2022/06/24 08:43:02;;;;;;;2.42;2.17;;;;;;;;;;5014954;28;20336;-66
2022/06/24 08:45:28;;;;;;;2.95;2.33;;;;;;;;;;5014676;28;20033;-67
2022/06/24 08:47:54;;;;;;;3.50;2.55;;;;;;;;;;5014526;28;20021;-68
2022/06/24 08:50:19;;;;;;;3.05;2.45;;;;;;;;;;5014711;28;20075;-68
2022/06/24 08:52:49;;;;;;;4.03;2.33;;;;;;;;;;5013165;28;21102;-71
2022/06/24 08:55:17;;;;;;;3.67;2.25;;;;;;;;;;5010006;28;20346;-68
2022/06/24 08:57:43;;;;;;;1.80;1.70;;;;;;;;;;5012906;28;20180;-68
2022/06/24 09:00:09;;;;;;;4.35;2.20;;;;;;;;;;5012333;28;21488;-69
2022/06/24 09:02:34;;;;;;;4.78;2.15;;;;;;;;;;5012023;28;20033;-67
2022/06/24 09:05:00;;;;;;;2.28;2.00;;;;;;;;;;5016350;28;20057;-69
2022/06/24 09:07:28;;;;;;;4.60;2.00;;;;;;;;;;5009648;28;20040;-73
2022/06/24 09:09:58;;;;;;;2.08;1.73;;;;;;;;;;5006116;28;20052;-73
2022/06/24 09:12:23;;;;;;;2.03;1.77;;;;;;;;;;5007160;28;20033;-70
2022/06/24 09:14:48;;;;;;;2.00;1.77;;;;;;;;;;5006264;28;20045;-68
2022/06/24 09:17:14;;;;;;;2.95;2.05;;;;;;;;;;5005616;28;20122;-71
2022/06/24 09:19:40;;;;;;;2.00;1.83;;;;;;;;;;5010116;28;20120;-72
2022/06/24 09:22:08;;;;;;;4.25;1.92;;;;;;;;;;5012995;28;20025;-68
2022/06/24 09:24:43;;;;;;;2.08;1.98;;;;;;;;;;5016909;28;20449;-68
2022/06/24 09:27:09;;;;;;;1.95;1.73;;;;;;;;;;5010738;28;20076;-70
2022/06/24 09:29:34;;;;;;;4.70;1.80;;;;;;;;;;5005703;28;20026;-71
2022/06/24 09:32:03;;;;;;;2.20;1.92;;;;;;;;;;5003706;28;20029;-71
2022/06/24 09:34:29;;;;;;;2.17;1.98;;;;;;;;;;5000625;28;20034;-70
2022/06/24 09:36:54;;;;;;;3.72;2.05;;;;;;;;;;5020312;28;20535;-73
2022/06/24 09:39:21;;;;;;;2.90;2.25;;;;;;;;;;5005291;28;20150;-70
2022/06/24 09:41:47;;;;;;;2.75;2.10;;;;;;;;;;5002104;28;20204;-69
2022/06/24 09:44:13;;;;;;;3.97;2.10;;;;;;;;;;5003527;28;20104;-73
2022/06/24 09:46:39;;;;;;;1.83;1.70;;;;;;;;;;5013488;28;20036;-69
2022/06/24 09:49:05;;;;;;;1.83;1.73;;;;;;;;;;5016068;28;20037;-67
2022/06/24 09:51:31;;;;;;;2.22;2.03;;;;;;;;;;5014513;28;20032;-67
2022/06/24 09:53:56;;;;;;;2.63;1.83;;;;;;;;;;5013119;28;20021;-68
2022/06/24 09:56:22;;;;;;;2.25;1.90;;;;;;;;;;5015613;28;20433;-69
2022/06/24 10:01:41;;;;;;;2.22;2.08;;;;;;;;;;5015811;28;20460;-69
2022/06/24 10:04:14;;;;;;;3.40;2.00;;;;;;;;;;5019191;28;20032;-68
2022/06/24 10:06:42;;;;;;;3.00;2.05;;;;;;;;;;5015276;28;20030;-73
2022/06/24 10:09:07;;;;;;;7.00;2.17;;;;;;;;;;5015634;28;20026;-67
2022/06/24 10:11:34;;;;;;;3.03;1.90;;;;;;;;;;5016075;28;20107;-69
2022/06/24 10:14:00;;;;;;;3.33;1.85;;;;;;;;;;5017423;28;20017;-72
2022/06/24 10:16:25;;;;;;;11.00;2.78;;;;;;;;;;5010607;28;20032;-68
2022/06/24 10:18:51;;;;;;;3.72;1.60;;;;;;;;;;5025085;28;20284;-69
2022/06/24 10:21:18;;;;;;;2.50;2.30;;;;;;;;;;5014805;28;20476;-68
2022/06/24 10:23:43;;;;;;;1.73;1.50;;;;;;;;;;5016431;28;20099;-67
2022/06/24 10:26:09;;;;;;;2.00;1.80;;;;;;;;;;5016625;28;20436;-70
2022/06/24 10:28:54;;;;;;;2.83;2.03;;;;;;;;;;5020904;28;20029;-67
2022/06/24 10:31:19;;;;;;;2.92;2.13;;;;;;;;;;5015346;28;20091;-67
2022/06/24 10:33:45;;;;;;;2.47;1.77;;;;;;;;;;5020523;28;20395;-71
2022/06/24 10:36:10;;;;;;;2.33;1.95;;;;;;;;;;5020416;28;20040;-67
2022/06/24 10:38:37;;;;;;;2.33;1.88;;;;;;;;;;5014785;28;20668;-68
2022/06/24 10:41:03;;;;;;;2.17;1.98;;;;;;;;;;5014145;28;20042;-73
2022/06/24 10:43:35;;;;;;;2.10;1.90;;;;;;;;;;5020431;28;20045;-69
2022/06/24 10:46:19;;;;;;;2.20;2.00;;;;;;;;;;5014316;28;20042;-67
2022/06/24 10:48:44;;;;;;;2.58;1.70;;;;;;;;;;5017711;28;20044;-67
2022/06/24 10:51:19;;;;;;;6.60;1.83;;;;;;;;;;5015601;28;20401;-67
2022/06/24 10:54:02;;;;;;;2.88;1.80;;;;;;;;;;5016980;28;20103;-72
2022/06/24 10:56:34;;;;;;;1.98;1.80;;;;;;;;;;5019491;28;20026;-71
2022/06/24 10:58:59;;;;;;;1.55;1.45;;;;;;;;;;5014718;28;20114;-66
2022/06/24 11:01:25;;;;;;;1.50;1.40;;;;;;;;;;5016643;28;20445;-68
2022/06/24 11:03:51;;;;;;;3.47;1.65;;;;;;;;;;5016278;28;20048;-68
2022/06/24 11:06:17;;;;;;;1.60;1.42;;;;;;;;;;5015150;28;20030;-67
2022/06/24 11:08:42;;;;;;;2.50;1.90;;;;;;;;;;5013749;28;20436;-69
2022/06/24 11:11:07;;;;;;;2.08;1.17;;;;;;;;;;5017776;28;20171;-69
2022/06/24 11:13:33;;;;;;;2.97;1.70;;;;;;;;;;5017879;28;20037;-68
2022/06/24 11:15:59;;;;;;;3.80;1.83;;;;;;;;;;5014546;28;20105;-69
2022/06/24 11:18:27;;;;;;;2.63;1.60;;;;;;;;;;5014863;28;20440;-70
2022/06/24 11:20:57;;;;;;;2.10;1.38;;;;;;;;;;5016715;28;20017;-70
2022/06/24 11:23:29;;;;;;;2.60;1.60;;;;;;;;;;5017358;28;20447;-70
2022/06/24 11:26:04;;;;;;;2.60;1.60;;;;;;;;;;5015157;28;20449;-71
2022/06/24 11:28:30;;;;;;;1.55;1.23;;;;;;;;;;5017606;28;20056;-73
2022/06/24 11:31:12;;;;;;;1.80;1.30;;;;;;;;;;5017203;28;20438;-69
2022/06/24 11:33:37;;;;;;;1.45;1.20;;;;;;;;;;5018695;28;20414;-68
2022/06/24 11:36:02;;;;;;;2.00;1.30;;;;;;;;;;5019820;28;20041;-75
2022/06/24 11:38:28;;;;;;;1.50;1.40;;;;;;;;;;5018182;28;20437;-68
2022/06/24 11:40:54;;;;;;;1.50;1.40;;;;;;;;;;5018763;28;20100;-69
2022/06/24 11:43:19;;;;;;;1.63;1.52;;;;;;;;;;5017211;28;20033;-69
2022/06/24 11:45:46;;;;;;;3.08;1.52;;;;;;;;;;5015258;28;20548;-69
2022/06/24 11:48:12;;;;;;;1.45;1.30;;;;;;;;;;5022154;28;20676;-69
2022/06/24 11:50:38;;;;;;;1.90;1.33;;;;;;;;;;5016018;28;20037;-71
2022/06/24 11:53:05;;;;;;;1.88;1.40;;;;;;;;;;5018799;28;20037;-71
2022/06/24 11:55:30;;;;;;;1.55;1.40;;;;;;;;;;5018873;28;20110;-69
2022/06/24 11:57:57;;;;;;;1.38;1.27;;;;;;;;;;5016691;28;20104;-68
2022/06/24 12:00:23;;;;;;;1.73;1.30;;;;;;;;;;5031453;28;20037;-73
2022/06/24 12:02:49;;;;;;;2.63;1.50;;;;;;;;;;5015287;28;20029;-70
2022/06/24 12:05:15;;;;;;;2.78;1.30;;;;;;;;;;5017880;28;20143;-70
2022/06/24 12:07:42;;;;;;;3.00;1.50;;;;;;;;;;5018601;28;20029;-71
2022/06/24 12:10:07;;;;;;;2.35;1.95;;;;;;;;;;5018186;28;20146;-69
2022/06/24 12:12:33;;;;;;;5.57;1.75;;;;;;;;;;5017663;28;20573;-69
2022/06/24 12:14:58;;;;;;;6.82;2.05;;;;;;;;;;5018223;28;20166;-69
2022/06/24 12:17:24;;;;;;;5.03;1.92;;;;;;;;;;5019887;28;20965;-69
2022/06/24 12:19:57;;;;;;;3.38;1.98;;;;;;;;;;5016214;28;20036;-69
2022/06/24 12:22:22;;;;;;;2.10;1.90;;;;;;;;;;5015166;28;20419;-68
2022/06/24 12:24:59;;;;;;;2.70;2.00;;;;;;;;;;5016259;28;20033;-69
2022/06/24 12:27:31;;;;;;;5.95;2.30;;;;;;;;;;5015800;28;20030;-70
2022/06/24 12:29:56;;;;;;;2.80;2.22;;;;;;;;;;5013915;28;20108;-73
2022/06/24 12:32:22;;;;;;;2.90;2.03;;;;;;;;;;5008187;28;20162;-70
2022/06/24 12:34:53;;;;;;;2.33;2.13;;;;;;;;;;5008205;28;20044;-68
2022/06/24 12:37:19;;;;;;;2.83;2.20;;;;;;;;;;5005996;28;20037;-69
2022/06/24 12:39:47;;;;;;;4.95;2.05;;;;;;;;;;5009065;28;20021;-73
2022/06/24 12:42:17;;;;;;;2.35;2.15;;;;;;;;;;5008536;28;20096;-72
2022/06/24 12:44:43;;;;;;;2.10;1.80;;;;;;;;;;5016778;28;20041;-69
2022/06/24 12:52:43;;;;;;;2.08;1.80;;;;;;;;;;5016773;28;20049;-67
2022/06/24 12:55:10;;;;;;;2.00;1.90;;;;;;;;;;5014705;28;20034;-68
2022/06/24 12:57:36;;;;;;;2.17;1.95;;;;;;;;;;5013358;28;20352;-67
2022/06/24 13:00:04;;;;;;;2.47;1.70;;;;;;;;;;5015612;28;20029;-69
2022/06/24 13:02:29;;;;;;;3.40;2.07;;;;;;;;;;5017058;28;20057;-69
2022/06/24 13:04:55;;;;;;;1.98;1.80;;;;;;;;;;5015297;28;20083;-71
2022/06/24 13:07:20;;;;;;;1.65;1.55;;;;;;;;;;5014876;28;20017;-72
2022/06/24 13:09:46;;;;;;;2.53;1.80;;;;;;;;;;5015072;28;20376;-69
2022/06/24 13:12:11;;;;;;;2.25;1.70;;;;;;;;;;5016977;28;20456;-74
2022/06/24 13:14:37;;;;;;;1.73;1.63;;;;;;;;;;5013583;28;20029;-67
2022/06/24 13:17:02;;;;;;;2.05;1.83;;;;;;;;;;5015075;28;20030;-68
2022/06/24 13:19:27;;;;;;;2.40;1.92;;;;;;;;;;5019673;28;20437;-67
2022/06/24 13:21:53;;;;;;;2.08;1.67;;;;;;;;;;5016507;28;20036;-70
2022/06/24 13:24:19;;;;;;;2.72;1.67;;;;;;;;;;5016336;28;20710;-68
2022/06/24 13:26:45;;;;;;;5.07;1.98;;;;;;;;;;5013522;28;20363;-68
2022/06/24 13:29:11;;;;;;;2.90;2.40;;;;;;;;;;5010345;28;20135;-71
2022/06/24 13:31:36;;;;;;;3.70;2.20;;;;;;;;;;5011819;28;20427;-73
2022/06/24 13:34:02;;;;;;;1.75;1.55;;;;;;;;;;5003287;28;20100;-71
2022/06/24 13:36:27;;;;;;;2.05;1.83;;;;;;;;;;5005864;28;20087;-71
2022/06/24 13:38:52;;;;;;;2.13;1.83;;;;;;;;;;5012834;28;20029;-72
2022/06/24 13:41:18;;;;;;;3.90;3.60;;;;;;;;;;5016986;28;20063;-72
2022/06/24 13:43:45;;;;;;;3.95;3.55;;;;;;;;;;5015404;28;20030;-71
2022/06/24 13:46:10;;;;;;;4.47;4.00;;;;;;;;;;5013938;28;20037;-71
2022/06/24 13:48:37;;;;;;;4.07;2.75;;;;;;;;;;5013388;28;20017;-74
2022/06/24 13:51:02;;;;;;;3.00;2.70;;;;;;;;;;5014856;28;20413;-70
2022/06/24 13:53:27;;;;;;;3.72;2.10;;;;;;;;;;5014659;28;20036;-74
2022/06/24 13:55:53;;;;;;;2.72;2.40;;;;;;;;;;5014316;28;20030;-70
2022/06/24 13:58:18;;;;;;;3.55;2.75;;;;;;;;;;5016540;28;20035;-68
2022/06/24 14:00:44;;;;;;;2.20;2.00;;;;;;;;;;5014985;28;20017;-72
2022/06/24 14:03:09;;;;;;;2.92;1.75;;;;;;;;;;5014122;28;20033;-69
2022/06/24 14:05:35;;;;;;;2.15;1.98;;;;;;;;;;5031717;28;20128;-71
2022/06/24 14:08:01;;;;;;;2.17;1.77;;;;;;;;;;5031927;28;20075;-70
2022/06/24 14:10:26;;;;;;;2.28;1.83;;;;;;;;;;5032727;28;20021;-70
2022/06/24 14:12:52;;;;;;;2.65;2.30;;;;;;;;;;5032512;28;20413;-69
2022/06/24 14:15:18;;;;;;;2.42;2.10;;;;;;;;;;5032747;28;20032;-69
2022/06/24 14:17:43;;;;;;;2.20;2.00;;;;;;;;;;5032507;28;20026;-72
2022/06/24 14:20:09;;;;;;;3.00;1.88;;;;;;;;;;5032313;28;20029;-69
2022/06/24 14:22:34;;;;;;;2.00;1.80;;;;;;;;;;5008100;28;20025;-72
2022/06/24 14:24:59;;;;;;;2.35;1.95;;;;;;;;;;5012173;28;20038;-76
2022/06/24 14:27:25;;;;;;;1.90;1.80;;;;;;;;;;5014734;28;20355;-73
2022/06/24 14:29:50;;;;;;;5.07;2.30;;;;;;;;;;5013442;28;20492;-71
2022/06/24 14:32:16;;;;;;;2.10;1.75;;;;;;;;;;5005934;28;20036;-70
2022/06/24 14:34:41;;;;;;;3.05;1.65;;;;;;;;;;5013940;28;20100;-74
2022/06/24 14:40:10;;;;;;;1.80;1.70;;;;;;;;;;5014616;28;20036;-71
2022/06/24 14:42:36;;;;;;;1.80;1.70;;;;;;;;;;5015386;28;20033;-71
2022/06/24 14:45:03;;;;;;;1.95;1.70;;;;;;;;;;5012899;28;20045;-75
2022/06/24 14:47:28;;;;;;;2.17;1.90;;;;;;;;;;5022117;28;20045;-72
2022/06/24 14:49:53;;;;;;;2.38;1.92;;;;;;;;;;5016137;28;20063;-74
2022/06/24 14:52:19;;;;;;;2.00;1.80;;;;;;;;;;5016926;28;20087;-72
2022/06/24 14:54:44;;;;;;;2.05;1.90;;;;;;;;;;5016519;28;20033;-71
2022/06/24 14:57:09;;;;;;;2.13;1.73;;;;;;;;;;5016239;28;20033;-72
2022/06/24 14:59:35;;;;;;;2.25;1.80;;;;;;;;;;5012654;28;20496;-70